sensor_id;sensor_type;location;lat;lon;timestamp;pressure;altitude;pressure_sealevel;temperature;humidity
32761;BME280;19126;47.472;7.850;2023-02-10T00:01:08;98431.47;;;-5.58;100.00
32761;BME280;19126;47.472;7.850;2023-02-10T00:03:36;98430.56;;;-5.55;100.00
32761;BME280;19126;47.472;7.850;2023-02-10T00:06:04;98434.06;;;-5.61;100.00
32761;BME280;19126;47.472;7.850;2023-02-10T00:08:32;98436.69;;;-5.63;100.00
32761;BME280;19126;47.472;7.850;2023-02-10T00:11:08;98438.38;;;-5.62;100.00
32761;BME280;19126;47.472;7.850;2023-02-10T00:13:36;98444.31;;;-5.60;100.00
32761;BME280;19126;47.472;7.850;2023-02-10T00:16:07;98431.50;;;-5.60;100.00
32761;BME280;19126;47.472;7.850;2023-02-10T00:18:35;98434.13;;;-5.63;100.00
32761;BME280;19126;47.472;7.850;2023-02-10T00:21:06;98443.59;;;-5.68;100.00
32761;BME280;19126;47.472;7.850;2023-02-10T00:23:34;98446.16;;;-5.69;100.00
32761;BME280;19126;47.472;7.850;2023-02-10T00:26:03;98448.03;;;-5.78;100.00
32761;BME280;19126;47.472;7.850;2023-02-10T00:28:31;98460.81;;;-5.78;100.00
32761;BME280;19126;47.472;7.850;2023-02-10T00:30:59;98457.53;;;-5.84;100.00
32761;BME280;19126;47.472;7.850;2023-02-10T00:33:26;98466.91;;;-5.83;100.00
32761;BME280;19126;47.472;7.850;2023-02-10T00:35:54;98464.41;;;-5.86;100.00
32761;BME280;19126;47.472;7.850;2023-02-10T00:38:24;98459.34;;;-5.91;100.00
32761;BME280;19126;47.472;7.850;2023-02-10T00:40:51;98474.69;;;-5.91;100.00
32761;BME280;19126;47.472;7.850;2023-02-10T00:43:18;98467.88;;;-5.91;100.00
32761;BME280;19126;47.472;7.850;2023-02-10T00:45:46;98473.00;;;-5.92;100.00
32761;BME280;19126;47.472;7.850;2023-02-10T00:48:13;98479.09;;;-5.99;100.00
32761;BME280;19126;47.472;7.850;2023-02-10T00:50:40;98472.38;;;-6.02;100.00
32761;BME280;19126;47.472;7.850;2023-02-10T00:53:08;98474.97;;;-6.07;100.00
32761;BME280;19126;47.472;7.850;2023-02-10T00:55:37;98480.19;;;-6.11;100.00
32761;BME280;19126;47.472;7.850;2023-02-10T00:58:04;98471.75;;;-6.16;100.00
32761;BME280;19126;47.472;7.850;2023-02-10T01:00:39;98476.03;;;-6.20;100.00
32761;BME280;19126;47.472;7.850;2023-02-10T01:03:06;98477.78;;;-6.22;100.00
32761;BME280;19126;47.472;7.850;2023-02-10T01:05:33;98477.00;;;-6.27;100.00
32761;BME280;19126;47.472;7.850;2023-02-10T01:08:00;98477.00;;;-6.27;100.00
32761;BME280;19126;47.472;7.850;2023-02-10T01:10:29;98474.50;;;-6.30;100.00
32761;BME280;19126;47.472;7.850;2023-02-10T01:13:00;98473.63;;;-6.28;100.00
32761;BME280;19126;47.472;7.850;2023-02-10T01:15:27;98470.28;;;-6.33;100.00
32761;BME280;19126;47.472;7.850;2023-02-10T01:17:54;98470.28;;;-6.33;100.00
32761;BME280;19126;47.472;7.850;2023-02-10T01:20:21;98472.03;;;-6.35;100.00
32761;BME280;19126;47.472;7.850;2023-02-10T01:22:49;98473.81;;;-6.40;100.00
32761;BME280;19126;47.472;7.850;2023-02-10T01:25:16;98470.38;;;-6.39;100.00
32761;BME280;19126;47.472;7.850;2023-02-10T01:27:44;98473.81;;;-6.42;100.00
32761;BME280;19126;47.472;7.850;2023-02-10T01:30:12;98471.25;;;-6.42;100.00
32761;BME280;19126;47.472;7.850;2023-02-10T01:32:39;98472.94;;;-6.41;100.00
32761;BME280;19126;47.472;7.850;2023-02-10T01:35:06;98471.13;;;-6.33;100.00
32761;BME280;19126;47.472;7.850;2023-02-10T01:37:34;98468.56;;;-6.31;100.00
32761;BME280;19126;47.472;7.850;2023-02-10T01:40:04;98477.81;;;-6.25;100.00
32761;BME280;19126;47.472;7.850;2023-02-10T01:42:31;98476.19;;;-6.28;100.00
32761;BME280;19126;47.472;7.850;2023-02-10T01:45:22;98472.78;;;-6.30;100.00
32761;BME280;19126;47.472;7.850;2023-02-10T01:47:51;98462.56;;;-6.30;100.00
32761;BME280;19126;47.472;7.850;2023-02-10T01:50:20;98465.13;;;-6.31;100.00
32761;BME280;19126;47.472;7.850;2023-02-10T01:52:48;98467.78;;;-6.36;100.00
32761;BME280;19126;47.472;7.850;2023-02-10T01:55:17;98473.75;;;-6.37;100.00
32761;BME280;19126;47.472;7.850;2023-02-10T01:57:44;98479.66;;;-6.34;100.00
32761;BME280;19126;47.472;7.850;2023-02-10T02:00:13;98471.16;;;-6.36;100.00
32761;BME280;19126;47.472;7.850;2023-02-10T02:02:43;98471.25;;;-6.42;100.00
32761;BME280;19126;47.472;7.850;2023-02-10T02:05:31;98470.34;;;-6.38;100.00
32761;BME280;19126;47.472;7.850;2023-02-10T02:08:03;98467.03;;;-6.44;100.00
32761;BME280;19126;47.472;7.850;2023-02-10T02:13:47;98463.72;;;-6.51;100.00
32761;BME280;19126;47.472;7.850;2023-02-10T02:16:25;98469.75;;;-6.55;100.00
32761;BME280;19126;47.472;7.850;2023-02-10T02:18:59;98472.25;;;-6.51;100.00
32761;BME280;19126;47.472;7.850;2023-02-10T02:24:57;98484.00;;;-6.37;100.00
32761;BME280;19126;47.472;7.850;2023-02-10T02:27:58;98476.41;;;-6.43;100.00
32761;BME280;19126;47.472;7.850;2023-02-10T02:30:46;98470.53;;;-6.50;100.00
32761;BME280;19126;47.472;7.850;2023-02-10T02:33:28;98474.91;;;-6.57;100.00
32761;BME280;19126;47.472;7.850;2023-02-10T02:36:06;98481.78;;;-6.62;100.00
32761;BME280;19126;47.472;7.850;2023-02-10T02:38:38;98482.66;;;-6.65;100.00
32761;BME280;19126;47.472;7.850;2023-02-10T02:41:06;98476.72;;;-6.67;100.00
32761;BME280;19126;47.472;7.850;2023-02-10T02:43:35;98477.53;;;-6.65;100.00
32761;BME280;19126;47.472;7.850;2023-02-10T02:46:10;98485.28;;;-6.71;100.00
32761;BME280;19126;47.472;7.850;2023-02-10T02:48:51;98481.91;;;-6.74;100.00
32761;BME280;19126;47.472;7.850;2023-02-10T02:51:35;98476.88;;;-6.81;100.00
32761;BME280;19126;47.472;7.850;2023-02-10T02:54:11;98474.31;;;-6.79;100.00
32761;BME280;19126;47.472;7.850;2023-02-10T02:56:45;98475.22;;;-6.83;100.00
32761;BME280;19126;47.472;7.850;2023-02-10T02:59:17;98474.44;;;-6.88;100.00
32761;BME280;19126;47.472;7.850;2023-02-10T03:01:49;98479.56;;;-6.90;100.00
32761;BME280;19126;47.472;7.850;2023-02-10T03:04:25;98482.09;;;-6.88;100.00
32761;BME280;19126;47.472;7.850;2023-02-10T03:06:56;98480.34;;;-6.83;100.00
32761;BME280;19126;47.472;7.850;2023-02-10T03:09:23;98476.91;;;-6.82;100.00
32761;BME280;19126;47.472;7.850;2023-02-10T03:11:56;98471.84;;;-6.85;100.00
32761;BME280;19126;47.472;7.850;2023-02-10T03:14:23;98477.03;;;-6.92;100.00
32761;BME280;19126;47.472;7.850;2023-02-10T03:16:51;98477.91;;;-6.94;100.00
32761;BME280;19126;47.472;7.850;2023-02-10T03:19:18;98480.50;;;-6.97;100.00
32761;BME280;19126;47.472;7.850;2023-02-10T03:21:48;98481.38;;;-6.98;100.00
32761;BME280;19126;47.472;7.850;2023-02-10T03:24:19;98477.97;;;-6.99;100.00
32761;BME280;19126;47.472;7.850;2023-02-10T03:26:46;98476.22;;;-6.95;100.00
32761;BME280;19126;47.472;7.850;2023-02-10T03:29:14;98472.84;;;-6.97;100.00
32761;BME280;19126;47.472;7.850;2023-02-10T03:31:43;98473.78;;;-7.04;100.00
32761;BME280;19126;47.472;7.850;2023-02-10T03:34:11;98476.34;;;-7.04;100.00
32761;BME280;19126;47.472;7.850;2023-02-10T03:36:40;98481.44;;;-7.04;100.00
32761;BME280;19126;47.472;7.850;2023-02-10T03:39:09;98474.72;;;-7.12;100.00
32761;BME280;19126;47.472;7.850;2023-02-10T03:41:40;98479.78;;;-7.09;100.00
32761;BME280;19126;47.472;7.850;2023-02-10T03:44:11;98479.84;;;-7.13;100.00
32761;BME280;19126;47.472;7.850;2023-02-10T03:46:39;98476.44;;;-7.14;100.00
32761;BME280;19126;47.472;7.850;2023-02-10T03:49:06;98481.59;;;-7.15;100.00
32761;BME280;19126;47.472;7.850;2023-02-10T03:51:41;98486.63;;;-7.11;100.00
32761;BME280;19126;47.472;7.850;2023-02-10T03:54:17;98485.75;;;-7.08;100.00
32761;BME280;19126;47.472;7.850;2023-02-10T03:56:47;98485.75;;;-7.08;100.00
32761;BME280;19126;47.472;7.850;2023-02-10T03:59:16;98490.00;;;-7.09;100.00
32761;BME280;19126;47.472;7.850;2023-02-10T04:04:24;98502.00;;;-7.15;100.00
32761;BME280;19126;47.472;7.850;2023-02-10T04:06:51;98496.94;;;-7.20;100.00
32761;BME280;19126;47.472;7.850;2023-02-10T04:09:20;98503.81;;;-7.24;100.00
32761;BME280;19126;47.472;7.850;2023-02-10T04:11:50;98505.50;;;-7.23;100.00
32761;BME280;19126;47.472;7.850;2023-02-10T04:14:17;98514.84;;;-7.22;100.00
32761;BME280;19126;47.472;7.850;2023-02-10T04:16:46;98509.81;;;-7.28;100.00
32761;BME280;19126;47.472;7.850;2023-02-10T04:19:13;98515.78;;;-7.30;100.00
32761;BME280;19126;47.472;7.850;2023-02-10T04:21:40;98511.53;;;-7.31;100.00
32761;BME280;19126;47.472;7.850;2023-02-10T04:24:13;98505.66;;;-7.38;100.00
32761;BME280;19126;47.472;7.850;2023-02-10T04:26:41;98509.84;;;-7.32;100.00
32761;BME280;19126;47.472;7.850;2023-02-10T04:29:08;98503.06;;;-7.35;99.93
32761;BME280;19126;47.472;7.850;2023-02-10T04:31:35;98504.00;;;-7.42;99.84
32761;BME280;19126;47.472;7.850;2023-02-10T04:34:02;98507.38;;;-7.42;99.41
32761;BME280;19126;47.472;7.850;2023-02-10T04:36:30;98504.03;;;-7.45;100.00
32761;BME280;19126;47.472;7.850;2023-02-10T04:38:57;98500.66;;;-7.49;99.90
32761;BME280;19126;47.472;7.850;2023-02-10T04:41:29;98509.16;;;-7.50;99.80
32761;BME280;19126;47.472;7.850;2023-02-10T04:43:57;98509.19;;;-7.53;99.89
32761;BME280;19126;47.472;7.850;2023-02-10T04:46:27;98509.22;;;-7.55;99.72
32761;BME280;19126;47.472;7.850;2023-02-10T04:48:54;98509.19;;;-7.52;99.83
32761;BME280;19126;47.472;7.850;2023-02-10T04:51:30;98502.31;;;-7.43;98.64
32761;BME280;19126;47.472;7.850;2023-02-10T04:53:57;98504.78;;;-7.34;97.88
32761;BME280;19126;47.472;7.850;2023-02-10T04:56:26;98501.25;;;-7.24;96.92
32761;BME280;19126;47.472;7.850;2023-02-10T04:59:00;98497.84;;;-7.23;97.69
32761;BME280;19126;47.472;7.850;2023-02-10T05:01:30;98500.28;;;-7.15;96.87
32761;BME280;19126;47.472;7.850;2023-02-10T05:04:01;98484.13;;;-7.15;95.46
32761;BME280;19126;47.472;7.850;2023-02-10T05:06:28;98496.13;;;-7.21;95.19
32761;BME280;19126;47.472;7.850;2023-02-10T05:08:55;98501.25;;;-7.25;95.90
32761;BME280;19126;47.472;7.850;2023-02-10T05:11:24;98504.75;;;-7.31;97.35
32761;BME280;19126;47.472;7.850;2023-02-10T05:13:52;98496.22;;;-7.30;97.07
32761;BME280;19126;47.472;7.850;2023-02-10T05:16:20;98496.22;;;-7.30;96.48
32761;BME280;19126;47.472;7.850;2023-02-10T05:19:08;98497.13;;;-7.36;97.33
32761;BME280;19126;47.472;7.850;2023-02-10T05:21:35;98498.00;;;-7.38;98.15
32761;BME280;19126;47.472;7.850;2023-02-10T05:24:07;98494.59;;;-7.39;98.62
32761;BME280;19126;47.472;7.850;2023-02-10T05:26:36;98502.25;;;-7.37;97.42
32761;BME280;19126;47.472;7.850;2023-02-10T05:29:04;98506.50;;;-7.38;97.47
32761;BME280;19126;47.472;7.850;2023-02-10T05:31:33;98500.59;;;-7.43;98.02
32761;BME280;19126;47.472;7.850;2023-02-10T05:34:01;98509.97;;;-7.43;98.49
32761;BME280;19126;47.472;7.850;2023-02-10T05:36:32;98511.66;;;-7.44;98.22
32761;BME280;19126;47.472;7.850;2023-02-10T05:41:40;98518.59;;;-7.58;99.14
32761;BME280;19126;47.472;7.850;2023-02-10T05:44:07;98510.97;;;-7.57;98.99
32761;BME280;19126;47.472;7.850;2023-02-10T05:46:36;98505.06;;;-7.62;99.72
32761;BME280;19126;47.472;7.850;2023-02-10T05:49:03;98510.19;;;-7.65;100.00
32761;BME280;19126;47.472;7.850;2023-02-10T05:51:33;98516.13;;;-7.65;99.55
32761;BME280;19126;47.472;7.850;2023-02-10T05:54:00;98514.50;;;-7.75;100.00
32761;BME280;19126;47.472;7.850;2023-02-10T05:56:30;98521.34;;;-7.75;100.00
32761;BME280;19126;47.472;7.850;2023-02-10T05:59:05;98515.25;;;-7.63;100.00
32761;BME280;19126;47.472;7.850;2023-02-10T06:01:43;98528.88;;;-7.63;100.00
32761;BME280;19126;47.472;7.850;2023-02-10T06:04:17;98520.44;;;-7.71;99.98
32761;BME280;19126;47.472;7.850;2023-02-10T06:06:47;98523.81;;;-7.69;99.43
32761;BME280;19126;47.472;7.850;2023-02-10T06:09:18;98521.34;;;-7.75;99.76
32761;BME280;19126;47.472;7.850;2023-02-10T06:11:55;98521.34;;;-7.80;100.00
32761;BME280;19126;47.472;7.850;2023-02-10T06:14:30;98530.72;;;-7.82;100.00
32761;BME280;19126;47.472;7.850;2023-02-10T06:17:05;98530.72;;;-7.81;100.00
32761;BME280;19126;47.472;7.850;2023-02-10T06:19:34;98533.22;;;-7.76;100.00
32761;BME280;19126;47.472;7.850;2023-02-10T06:22:06;98526.44;;;-7.77;99.80
32761;BME280;19126;47.472;7.850;2023-02-10T06:24:36;98543.38;;;-7.70;99.80
32761;BME280;19126;47.472;7.850;2023-02-10T06:27:10;98543.44;;;-7.74;100.00
32761;BME280;19126;47.472;7.850;2023-02-10T06:29:43;98533.28;;;-7.82;100.00
32761;BME280;19126;47.472;7.850;2023-02-10T06:32:12;98532.47;;;-7.86;99.74
32761;BME280;19126;47.472;7.850;2023-02-10T06:34:44;98540.06;;;-7.81;99.20
32761;BME280;19126;47.472;7.850;2023-02-10T06:37:26;98548.59;;;-7.82;99.41
32761;BME280;19126;47.472;7.850;2023-02-10T06:39:55;98543.53;;;-7.87;98.99
32761;BME280;19126;47.472;7.850;2023-02-10T06:42:38;98545.19;;;-7.83;98.42
32761;BME280;19126;47.472;7.850;2023-02-10T06:47:48;98551.22;;;-7.90;98.57
32761;BME280;19126;47.472;7.850;2023-02-10T06:50:35;98546.97;;;-7.91;97.75
32761;BME280;19126;47.472;7.850;2023-02-10T06:53:22;98555.44;;;-7.86;98.40
32761;BME280;19126;47.472;7.850;2023-02-10T06:58:32;98554.56;;;-7.86;96.07
32761;BME280;19126;47.472;7.850;2023-02-10T07:03:46;98563.81;;;-7.73;95.23
32761;BME280;19126;47.472;7.850;2023-02-10T07:06:35;98557.06;;;-7.78;95.40
32761;BME280;19126;47.472;7.850;2023-02-10T07:12:15;98559.44;;;-7.57;95.75
32761;BME280;19126;47.472;7.850;2023-02-10T07:14:59;98559.44;;;-7.57;94.72
32761;BME280;19126;47.472;7.850;2023-02-10T07:17:42;98557.69;;;-7.52;92.87
32761;BME280;19126;47.472;7.850;2023-02-10T07:20:39;98567.84;;;-7.45;93.10
32761;BME280;19126;47.472;7.850;2023-02-10T07:23:34;98574.56;;;-7.35;92.64
32761;BME280;19126;47.472;7.850;2023-02-10T07:28:46;98571.84;;;-7.18;92.31
32761;BME280;19126;47.472;7.850;2023-02-10T07:45:17;98583.63;;;-2.25;100.00
32761;BME280;19126;47.472;7.850;2023-02-10T07:48:01;98582.63;;;-1.64;100.00
32761;BME280;19126;47.472;7.850;2023-02-10T07:53:16;98596.72;;;-2.63;100.00
32761;BME280;19126;47.472;7.850;2023-02-10T08:08:53;98606.78;;;-2.55;100.00
32761;BME280;19126;47.472;7.850;2023-02-10T08:11:37;98611.28;;;-2.63;100.00
32761;BME280;19126;47.472;7.850;2023-02-10T08:14:08;98613.66;;;-2.56;100.00
32761;BME280;19126;47.472;7.850;2023-02-10T08:16:40;98605.81;;;-2.51;100.00
32761;BME280;19126;47.472;7.850;2023-02-10T08:19:14;98606.84;;;-2.27;100.00
32761;BME280;19126;47.472;7.850;2023-02-10T08:21:44;98612.06;;;-2.00;100.00
32761;BME280;19126;47.472;7.850;2023-02-10T08:24:12;98605.59;;;-1.85;100.00
32761;BME280;19126;47.472;7.850;2023-02-10T08:26:42;98608.47;;;-1.66;100.00
32761;BME280;19126;47.472;7.850;2023-02-10T08:29:13;98599.44;;;-1.52;100.00
32761;BME280;19126;47.472;7.850;2023-02-10T08:31:40;98612.19;;;-1.21;100.00
32761;BME280;19126;47.472;7.850;2023-02-10T08:34:14;98610.00;;;-1.06;100.00
32761;BME280;19126;47.472;7.850;2023-02-10T08:36:45;98614.78;;;-1.21;100.00
32761;BME280;19126;47.472;7.850;2023-02-10T08:39:32;98612.31;;;-0.98;100.00
32761;BME280;19126;47.472;7.850;2023-02-10T08:42:12;98611.75;;;-0.57;100.00
32761;BME280;19126;47.472;7.850;2023-02-10T08:44:41;98608.06;;;-0.26;100.00
32761;BME280;19126;47.472;7.850;2023-02-10T08:47:09;98604.81;;;-0.32;100.00
32761;BME280;19126;47.472;7.850;2023-02-10T08:49:36;98614.56;;;-0.16;100.00
32761;BME280;19126;47.472;7.850;2023-02-10T08:52:07;98625.38;;;0.18;100.00
32761;BME280;19126;47.472;7.850;2023-02-10T08:54:54;98611.66;;;-0.07;100.00
32761;BME280;19126;47.472;7.850;2023-02-10T08:57:25;98611.41;;;-0.01;100.00
32761;BME280;19126;47.472;7.850;2023-02-10T09:00:02;98621.00;;;0.42;100.00
32761;BME280;19126;47.472;7.850;2023-02-10T09:02:57;98612.94;;;0.50;98.99
32761;BME280;19126;47.472;7.850;2023-02-10T09:06:21;98610.47;;;0.47;96.66
32761;BME280;19126;47.472;7.850;2023-02-10T09:09:22;98615.94;;;0.61;99.08
32761;BME280;19126;47.472;7.850;2023-02-10T09:12:44;98625.03;;;0.92;98.54
32761;BME280;19126;47.472;7.850;2023-02-10T09:15:36;98619.38;;;1.03;99.12
32761;BME280;19126;47.472;7.850;2023-02-10T09:18:04;98614.81;;;1.10;98.36
32761;BME280;19126;47.472;7.850;2023-02-10T09:20:36;98614.00;;;1.49;98.18
32761;BME280;19126;47.472;7.850;2023-02-10T09:23:08;98609.84;;;1.85;96.82
32761;BME280;19126;47.472;7.850;2023-02-10T09:25:38;98614.22;;;1.64;94.99
32761;BME280;19126;47.472;7.850;2023-02-10T09:28:08;98616.69;;;1.67;95.97
32761;BME280;19126;47.472;7.850;2023-02-10T09:30:36;98618.16;;;1.92;96.07
32761;BME280;19126;47.472;7.850;2023-02-10T09:33:05;98619.47;;;2.39;93.92
32761;BME280;19126;47.472;7.850;2023-02-10T09:35:34;98620.97;;;2.97;94.89
32761;BME280;19126;47.472;7.850;2023-02-10T09:38:02;98618.53;;;3.45;92.74
32761;BME280;19126;47.472;7.850;2023-02-10T09:40:59;98623.72;;;3.29;86.29
32761;BME280;19126;47.472;7.850;2023-02-10T09:43:45;98620.38;;;3.43;84.77
32761;BME280;19126;47.472;7.850;2023-02-10T09:46:22;98618.16;;;3.53;84.72
32761;BME280;19126;47.472;7.850;2023-02-10T09:48:57;98619.72;;;3.89;84.84
32761;BME280;19126;47.472;7.850;2023-02-10T09:51:35;98618.66;;;4.09;83.57
32761;BME280;19126;47.472;7.850;2023-02-10T09:54:10;98612.88;;;4.04;81.51
32761;BME280;19126;47.472;7.850;2023-02-10T09:56:38;98612.94;;;4.03;80.35
32761;BME280;19126;47.472;7.850;2023-02-10T09:59:10;98616.78;;;3.79;80.05
32761;BME280;19126;47.472;7.850;2023-02-10T10:01:47;98614.94;;;3.81;83.72
32761;BME280;19126;47.472;7.850;2023-02-10T10:04:19;98619.81;;;3.88;82.42
32761;BME280;19126;47.472;7.850;2023-02-10T10:06:50;98619.31;;;3.97;82.66
32761;BME280;19126;47.472;7.850;2023-02-10T10:09:27;98621.69;;;4.18;83.15
32761;BME280;19126;47.472;7.850;2023-02-10T10:11:57;98618.97;;;4.51;81.18
32761;BME280;19126;47.472;7.850;2023-02-10T10:14:28;98610.34;;;4.51;79.41
32761;BME280;19126;47.472;7.850;2023-02-10T10:20:16;98628.03;;;4.60;77.56
32761;BME280;19126;47.472;7.850;2023-02-10T10:22:48;98625.56;;;4.73;76.71
32761;BME280;19126;47.472;7.850;2023-02-10T10:25:31;98614.63;;;4.36;78.08
32761;BME280;19126;47.472;7.850;2023-02-10T10:28:08;98619.19;;;4.63;77.50
32761;BME280;19126;47.472;7.850;2023-02-10T10:30:43;98624.38;;;4.79;76.40
32761;BME280;19126;47.472;7.850;2023-02-10T10:33:22;98619.13;;;4.95;76.45
32761;BME280;19126;47.472;7.850;2023-02-10T10:35:52;98620.91;;;4.94;75.85
32761;BME280;19126;47.472;7.850;2023-02-10T10:38:21;98607.94;;;4.93;77.11
32761;BME280;19126;47.472;7.850;2023-02-10T10:40:56;98609.19;;;5.02;75.61
32761;BME280;19126;47.472;7.850;2023-02-10T10:43:30;98610.47;;;4.94;75.86
32761;BME280;19126;47.472;7.850;2023-02-10T10:46:01;98588.56;;;4.82;73.63
32761;BME280;19126;47.472;7.850;2023-02-10T10:48:32;98598.94;;;4.98;73.10
32761;BME280;19126;47.472;7.850;2023-02-10T10:51:03;98598.06;;;5.14;73.87
32761;BME280;19126;47.472;7.850;2023-02-10T10:53:41;98591.72;;;5.18;73.32
32761;BME280;19126;47.472;7.850;2023-02-10T10:56:14;98588.06;;;5.06;72.15
32761;BME280;19126;47.472;7.850;2023-02-10T10:58:48;98578.59;;;5.20;71.23
32761;BME280;19126;47.472;7.850;2023-02-10T11:01:31;98570.22;;;5.29;71.53
32761;BME280;19126;47.472;7.850;2023-02-10T11:04:04;98572.69;;;5.47;71.60
32761;BME280;19126;47.472;7.850;2023-02-10T11:06:37;98579.75;;;5.45;69.40
32761;BME280;19126;47.472;7.850;2023-02-10T11:25:26;98564.75;;;5.48;65.63
32761;BME280;19126;47.472;7.850;2023-02-10T11:31:46;98565.78;;;5.60;65.58
32761;BME280;19126;47.472;7.850;2023-02-10T11:34:37;98554.69;;;5.56;65.81
32761;BME280;19126;47.472;7.850;2023-02-10T11:37:12;98554.47;;;5.74;65.60
32761;BME280;19126;47.472;7.850;2023-02-10T11:39:47;98561.19;;;5.78;65.40
32761;BME280;19126;47.472;7.850;2023-02-10T11:42:20;98557.00;;;5.76;64.99
32761;BME280;19126;47.472;7.850;2023-02-10T11:44:56;98547.13;;;5.81;65.27
32761;BME280;19126;47.472;7.850;2023-02-10T11:47:24;98546.84;;;5.71;64.95
32761;BME280;19126;47.472;7.850;2023-02-10T11:49:57;98540.69;;;5.72;66.28
32761;BME280;19126;47.472;7.850;2023-02-10T11:52:28;98543.63;;;5.53;64.88
32761;BME280;19126;47.472;7.850;2023-02-10T11:55:01;98539.38;;;5.79;66.15
32761;BME280;19126;47.472;7.850;2023-02-10T12:11:46;98536.59;;;6.24;62.58
32761;BME280;19126;47.472;7.850;2023-02-10T12:14:34;98521.38;;;6.04;63.92
32761;BME280;19126;47.472;7.850;2023-02-10T12:20:46;98533.69;;;6.01;64.48
32761;BME280;19126;47.472;7.850;2023-02-10T12:27:04;98520.66;;;5.87;66.10
32761;BME280;19126;47.472;7.850;2023-02-10T12:29:42;98525.31;;;5.82;64.12
32761;BME280;19126;47.472;7.850;2023-02-10T12:32:26;98519.63;;;5.90;66.29
32761;BME280;19126;47.472;7.850;2023-02-10T12:38:27;98522.84;;;5.66;65.73
32761;BME280;19126;47.472;7.850;2023-02-10T12:41:01;98521.50;;;5.73;69.06
32761;BME280;19126;47.472;7.850;2023-02-10T12:43:48;98507.66;;;5.72;69.83
32761;BME280;19126;47.472;7.850;2023-02-10T12:46:31;98503.75;;;5.65;69.10
32761;BME280;19126;47.472;7.850;2023-02-10T12:49:12;98510.69;;;5.79;69.43
32761;BME280;19126;47.472;7.850;2023-02-10T12:51:57;98504.31;;;5.70;70.41
32761;BME280;19126;47.472;7.850;2023-02-10T12:54:30;98516.41;;;5.71;70.42
32761;BME280;19126;47.472;7.850;2023-02-10T12:57:10;98510.16;;;5.74;70.33
32761;BME280;19126;47.472;7.850;2023-02-10T12:59:49;98512.19;;;5.41;68.47
32761;BME280;19126;47.472;7.850;2023-02-10T13:02:20;98501.00;;;5.39;69.21
32761;BME280;19126;47.472;7.850;2023-02-10T13:05:02;98519.69;;;5.46;71.33
32761;BME280;19126;47.472;7.850;2023-02-10T13:07:39;98515.88;;;5.52;71.55
32761;BME280;19126;47.472;7.850;2023-02-10T13:13:05;98514.75;;;5.56;72.09
32761;BME280;19126;47.472;7.850;2023-02-10T13:15:43;98518.19;;;5.56;72.09
32761;BME280;19126;47.472;7.850;2023-02-10T13:18:20;98514.28;;;5.49;72.25
32761;BME280;19126;47.472;7.850;2023-02-10T13:20:53;98500.72;;;5.44;71.96
32761;BME280;19126;47.472;7.850;2023-02-10T13:23:25;98511.25;;;5.42;72.12
32761;BME280;19126;47.472;7.850;2023-02-10T13:26:07;98507.16;;;5.38;71.63
32761;BME280;19126;47.472;7.850;2023-02-10T13:28:44;98506.50;;;5.35;72.73
32761;BME280;19126;47.472;7.850;2023-02-10T13:31:27;98502.88;;;5.37;72.92
32761;BME280;19126;47.472;7.850;2023-02-10T13:34:16;98501.56;;;5.30;71.43
32761;BME280;19126;47.472;7.850;2023-02-10T13:36:59;98498.75;;;5.19;70.29
32761;BME280;19126;47.472;7.850;2023-02-10T13:39:30;98502.66;;;5.26;70.63
32761;BME280;19126;47.472;7.850;2023-02-10T13:42:09;98501.00;;;5.25;71.23
32761;BME280;19126;47.472;7.850;2023-02-10T13:44:55;98495.97;;;5.22;70.41
32761;BME280;19126;47.472;7.850;2023-02-10T13:47:30;98506.94;;;5.27;70.08
32761;BME280;19126;47.472;7.850;2023-02-10T13:50:02;98505.06;;;5.29;69.59
32761;BME280;19126;47.472;7.850;2023-02-10T13:52:35;98497.09;;;5.18;70.83
32761;BME280;19126;47.472;7.850;2023-02-10T13:55:25;98507.06;;;5.25;71.35
32761;BME280;19126;47.472;7.850;2023-02-10T13:57:54;98506.19;;;5.25;71.08
32761;BME280;19126;47.472;7.850;2023-02-10T14:00:25;98506.19;;;5.10;71.05
32761;BME280;19126;47.472;7.850;2023-02-10T14:03:18;98491.31;;;4.98;72.97
32761;BME280;19126;47.472;7.850;2023-02-10T14:05:55;98492.59;;;4.91;71.65
32761;BME280;19126;47.472;7.850;2023-02-10T14:08:33;98508.72;;;4.97;71.13
32761;BME280;19126;47.472;7.850;2023-02-10T14:11:04;98501.09;;;4.94;70.43
32761;BME280;19126;47.472;7.850;2023-02-10T14:13:34;98501.66;;;4.99;70.33
32761;BME280;19126;47.472;7.850;2023-02-10T14:16:26;98506.13;;;4.97;71.02
32761;BME280;19126;47.472;7.850;2023-02-10T14:19:00;98502.09;;;4.92;70.36
32761;BME280;19126;47.472;7.850;2023-02-10T14:21:37;98507.66;;;4.86;72.49
32761;BME280;19126;47.472;7.850;2023-02-10T14:24:12;98501.91;;;4.80;72.49
32761;BME280;19126;47.472;7.850;2023-02-10T14:26:44;98506.25;;;4.65;72.16
32761;BME280;19126;47.472;7.850;2023-02-10T14:29:18;98507.63;;;4.57;74.91
32761;BME280;19126;47.472;7.850;2023-02-10T14:31:49;98504.41;;;4.37;77.22
32761;BME280;19126;47.472;7.850;2023-02-10T14:34:31;98509.53;;;4.38;78.69
32761;BME280;19126;47.472;7.850;2023-02-10T14:37:01;98503.84;;;4.32;76.41
32761;BME280;19126;47.472;7.850;2023-02-10T14:39:30;98514.16;;;4.33;77.31
32761;BME280;19126;47.472;7.850;2023-02-10T14:42:03;98519.44;;;4.32;77.44
32761;BME280;19126;47.472;7.850;2023-02-10T14:44:34;98514.59;;;4.25;78.04
32761;BME280;19126;47.472;7.850;2023-02-10T14:47:05;98510.50;;;4.21;78.11
32761;BME280;19126;47.472;7.850;2023-02-10T14:49:37;98507.25;;;4.18;78.49
32761;BME280;19126;47.472;7.850;2023-02-10T14:52:21;98525.44;;;4.18;78.45
32761;BME280;19126;47.472;7.850;2023-02-10T14:54:49;98521.25;;;4.15;77.27
32761;BME280;19126;47.472;7.850;2023-02-10T14:57:29;98514.06;;;4.04;76.62
32761;BME280;19126;47.472;7.850;2023-02-10T15:00:00;98516.16;;;3.98;77.97
32761;BME280;19126;47.472;7.850;2023-02-10T15:02:39;98519.75;;;3.95;76.50
32761;BME280;19126;47.472;7.850;2023-02-10T15:05:18;98516.06;;;3.83;77.92
32761;BME280;19126;47.472;7.850;2023-02-10T15:07:50;98515.22;;;3.83;78.95
32761;BME280;19126;47.472;7.850;2023-02-10T15:10:26;98519.34;;;3.71;79.06
32761;BME280;19126;47.472;7.850;2023-02-10T15:13:01;98521.25;;;3.67;79.93
32761;BME280;19126;47.472;7.850;2023-02-10T15:15:34;98515.97;;;3.52;80.72
32761;BME280;19126;47.472;7.850;2023-02-10T15:18:07;98522.41;;;3.45;81.00
32761;BME280;19126;47.472;7.850;2023-02-10T15:20:55;98529.56;;;3.42;80.22